sensor_id;sensor_type;location;lat;lon;timestamp;temperature;humidity
1614;DHT22;800;48.824;9.346;2023-02-03T00:02:19;10.10;61.90
1614;DHT22;800;48.824;9.346;2023-02-03T00:04:45;10.30;61.40
1614;DHT22;800;48.824;9.346;2023-02-03T00:07:11;10.40;61.10
1614;DHT22;800;48.824;9.346;2023-02-03T00:09:38;10.30;61.10
1614;DHT22;800;48.824;9.346;2023-02-03T00:12:04;10.10;61.60
1614;DHT22;800;48.824;9.346;2023-02-03T00:14:29;10.20;61.80
1614;DHT22;800;48.824;9.346;2023-02-03T00:16:55;10.30;61.50
1614;DHT22;800;48.824;9.346;2023-02-03T00:19:20;10.30;61.40
1614;DHT22;800;48.824;9.346;2023-02-03T00:21:46;10.30;61.10
1614;DHT22;800;48.824;9.346;2023-02-03T00:24:12;10.30;61.00
1614;DHT22;800;48.824;9.346;2023-02-03T00:26:43;10.60;61.20
1614;DHT22;800;48.824;9.346;2023-02-03T00:29:09;10.40;60.60
1614;DHT22;800;48.824;9.346;2023-02-03T00:31:35;10.40;61.10
1614;DHT22;800;48.824;9.346;2023-02-03T00:34:02;10.40;60.90
1614;DHT22;800;48.824;9.346;2023-02-03T00:36:28;10.40;61.10
1614;DHT22;800;48.824;9.346;2023-02-03T00:38:53;10.40;60.70
1614;DHT22;800;48.824;9.346;2023-02-03T00:41:20;10.50;61.00
1614;DHT22;800;48.824;9.346;2023-02-03T00:43:46;10.50;60.60
1614;DHT22;800;48.824;9.346;2023-02-03T00:46:12;10.40;60.90
1614;DHT22;800;48.824;9.346;2023-02-03T00:48:38;10.40;61.10
1614;DHT22;800;48.824;9.346;2023-02-03T00:51:04;10.40;61.10
1614;DHT22;800;48.824;9.346;2023-02-03T00:53:29;10.30;61.50
1614;DHT22;800;48.824;9.346;2023-02-03T00:55:55;10.60;61.00
1614;DHT22;800;48.824;9.346;2023-02-03T00:58:21;10.70;60.20
1614;DHT22;800;48.824;9.346;2023-02-03T01:00:46;10.60;60.10
1614;DHT22;800;48.824;9.346;2023-02-03T01:03:12;10.80;59.90
1614;DHT22;800;48.824;9.346;2023-02-03T01:05:37;10.90;59.60
1614;DHT22;800;48.824;9.346;2023-02-03T01:08:03;10.70;60.10
1614;DHT22;800;48.824;9.346;2023-02-03T01:10:29;10.50;60.30
1614;DHT22;800;48.824;9.346;2023-02-03T01:12:55;10.30;60.80
1614;DHT22;800;48.824;9.346;2023-02-03T01:15:20;10.30;60.80
1614;DHT22;800;48.824;9.346;2023-02-03T01:17:46;10.30;61.60
1614;DHT22;800;48.824;9.346;2023-02-03T01:20:11;10.10;61.80
1614;DHT22;800;48.824;9.346;2023-02-03T01:22:38;10.10;62.20
1614;DHT22;800;48.824;9.346;2023-02-03T01:25:04;10.10;62.40
1614;DHT22;800;48.824;9.346;2023-02-03T01:27:31;10.20;62.30
1614;DHT22;800;48.824;9.346;2023-02-03T01:29:57;10.20;62.40
1614;DHT22;800;48.824;9.346;2023-02-03T01:32:23;10.10;62.90
1614;DHT22;800;48.824;9.346;2023-02-03T01:34:49;10.00;62.50
1614;DHT22;800;48.824;9.346;2023-02-03T01:37:14;10.10;62.80
1614;DHT22;800;48.824;9.346;2023-02-03T01:39:42;10.10;62.70
1614;DHT22;800;48.824;9.346;2023-02-03T01:42:12;9.90;64.00
1614;DHT22;800;48.824;9.346;2023-02-03T01:44:41;9.60;65.10
1614;DHT22;800;48.824;9.346;2023-02-03T01:47:22;9.50;66.10
1614;DHT22;800;48.824;9.346;2023-02-03T01:52:38;9.70;66.20
1614;DHT22;800;48.824;9.346;2023-02-03T01:55:07;9.70;65.50
1614;DHT22;800;48.824;9.346;2023-02-03T01:58:02;9.60;65.70
1614;DHT22;800;48.824;9.346;2023-02-03T02:00:26;9.70;66.00
1614;DHT22;800;48.824;9.346;2023-02-03T02:02:52;9.80;65.70
1614;DHT22;800;48.824;9.346;2023-02-03T02:08:21;9.90;65.20
1614;DHT22;800;48.824;9.346;2023-02-03T02:10:47;9.70;65.30
1614;DHT22;800;48.824;9.346;2023-02-03T02:13:13;9.50;65.90
1614;DHT22;800;48.824;9.346;2023-02-03T02:16:21;9.70;66.00
1614;DHT22;800;48.824;9.346;2023-02-03T02:19:27;9.70;66.00
1614;DHT22;800;48.824;9.346;2023-02-03T02:27:28;9.70;66.40
1614;DHT22;800;48.824;9.346;2023-02-03T02:40:58;9.70;66.10
1614;DHT22;800;48.824;9.346;2023-02-03T02:46:09;9.70;65.70
1614;DHT22;800;48.824;9.346;2023-02-03T02:48:54;9.80;65.60
1614;DHT22;800;48.824;9.346;2023-02-03T02:51:22;10.00;64.50
1614;DHT22;800;48.824;9.346;2023-02-03T02:53:53;10.20;64.00
1614;DHT22;800;48.824;9.346;2023-02-03T02:56:20;10.30;63.40
1614;DHT22;800;48.824;9.346;2023-02-03T02:58:47;10.10;63.00
1614;DHT22;800;48.824;9.346;2023-02-03T03:01:14;10.10;62.80
1614;DHT22;800;48.824;9.346;2023-02-03T03:03:41;10.20;63.10
1614;DHT22;800;48.824;9.346;2023-02-03T03:06:16;10.40;62.70
1614;DHT22;800;48.824;9.346;2023-02-03T03:09:07;10.20;62.60
1614;DHT22;800;48.824;9.346;2023-02-03T03:12:00;10.10;63.40
1614;DHT22;800;48.824;9.346;2023-02-03T03:14:27;10.30;63.40
1614;DHT22;800;48.824;9.346;2023-02-03T03:16:59;10.40;62.80
1614;DHT22;800;48.824;9.346;2023-02-03T03:19:31;10.10;62.90
1614;DHT22;800;48.824;9.346;2023-02-03T03:22:01;9.90;65.00
1614;DHT22;800;48.824;9.346;2023-02-03T03:24:35;10.00;64.10
1614;DHT22;800;48.824;9.346;2023-02-03T03:27:11;9.90;65.40
1614;DHT22;800;48.824;9.346;2023-02-03T03:29:42;10.10;64.10
1614;DHT22;800;48.824;9.346;2023-02-03T03:32:09;10.00;63.80
1614;DHT22;800;48.824;9.346;2023-02-03T03:34:35;9.80;65.50
1614;DHT22;800;48.824;9.346;2023-02-03T03:42:34;10.30;63.10
1614;DHT22;800;48.824;9.346;2023-02-03T03:45:25;10.60;62.50
1614;DHT22;800;48.824;9.346;2023-02-03T03:50:29;11.00;60.50
1614;DHT22;800;48.824;9.346;2023-02-03T03:52:57;10.60;60.40
1614;DHT22;800;48.824;9.346;2023-02-03T03:55:27;10.80;60.90
1614;DHT22;800;48.824;9.346;2023-02-03T03:57:59;10.90;60.70
1614;DHT22;800;48.824;9.346;2023-02-03T04:00:28;11.00;60.10
1614;DHT22;800;48.824;9.346;2023-02-03T04:02:57;10.80;60.30
1614;DHT22;800;48.824;9.346;2023-02-03T04:05:24;11.00;60.20
1614;DHT22;800;48.824;9.346;2023-02-03T04:07:51;11.00;59.90
1614;DHT22;800;48.824;9.346;2023-02-03T04:12:49;11.30;59.50
1614;DHT22;800;48.824;9.346;2023-02-03T04:15:15;11.30;59.30
1614;DHT22;800;48.824;9.346;2023-02-03T04:17:40;11.20;59.30
1614;DHT22;800;48.824;9.346;2023-02-03T04:20:06;11.40;59.30
1614;DHT22;800;48.824;9.346;2023-02-03T04:22:32;11.30;59.10
1614;DHT22;800;48.824;9.346;2023-02-03T04:24:57;11.20;59.70
1614;DHT22;800;48.824;9.346;2023-02-03T04:27:24;11.20;60.30
1614;DHT22;800;48.824;9.346;2023-02-03T04:29:50;11.30;60.70
1614;DHT22;800;48.824;9.346;2023-02-03T04:32:16;11.30;60.80
1614;DHT22;800;48.824;9.346;2023-02-03T04:34:41;11.20;61.30
1614;DHT22;800;48.824;9.346;2023-02-03T04:37:07;11.10;61.80
1614;DHT22;800;48.824;9.346;2023-02-03T04:39:32;11.00;62.40
1614;DHT22;800;48.824;9.346;2023-02-03T04:41:58;11.10;62.90
1614;DHT22;800;48.824;9.346;2023-02-03T04:44:23;11.20;62.90
1614;DHT22;800;48.824;9.346;2023-02-03T04:46:49;11.10;62.80
1614;DHT22;800;48.824;9.346;2023-02-03T04:49:15;10.90;63.30
1614;DHT22;800;48.824;9.346;2023-02-03T04:51:42;10.60;64.10
1614;DHT22;800;48.824;9.346;2023-02-03T04:54:09;10.30;65.50
1614;DHT22;800;48.824;9.346;2023-02-03T04:56:35;10.40;66.30
1614;DHT22;800;48.824;9.346;2023-02-03T04:59:01;10.40;66.60
1614;DHT22;800;48.824;9.346;2023-02-03T05:01:26;10.20;66.90
1614;DHT22;800;48.824;9.346;2023-02-03T05:03:52;9.90;69.30
1614;DHT22;800;48.824;9.346;2023-02-03T05:06:22;10.00;68.40
1614;DHT22;800;48.824;9.346;2023-02-03T05:08:48;9.90;69.90
1614;DHT22;800;48.824;9.346;2023-02-03T05:11:14;9.80;70.10
1614;DHT22;800;48.824;9.346;2023-02-03T05:13:39;10.00;68.90
1614;DHT22;800;48.824;9.346;2023-02-03T05:16:05;10.20;68.30
1614;DHT22;800;48.824;9.346;2023-02-03T05:18:31;10.30;68.00
1614;DHT22;800;48.824;9.346;2023-02-03T05:20:57;10.40;67.90
1614;DHT22;800;48.824;9.346;2023-02-03T05:23:22;10.50;67.60
1614;DHT22;800;48.824;9.346;2023-02-03T05:25:48;10.40;67.10
1614;DHT22;800;48.824;9.346;2023-02-03T05:28:14;10.40;67.50
1614;DHT22;800;48.824;9.346;2023-02-03T05:30:39;10.30;67.50
1614;DHT22;800;48.824;9.346;2023-02-03T05:33:05;10.30;67.60
1614;DHT22;800;48.824;9.346;2023-02-03T05:35:31;10.30;67.40
1614;DHT22;800;48.824;9.346;2023-02-03T05:37:57;10.30;67.90
1614;DHT22;800;48.824;9.346;2023-02-03T05:40:24;10.30;68.10
1614;DHT22;800;48.824;9.346;2023-02-03T05:43:08;10.20;68.60
1614;DHT22;800;48.824;9.346;2023-02-03T05:45:34;10.30;68.70
1614;DHT22;800;48.824;9.346;2023-02-03T05:48:00;10.10;68.80
1614;DHT22;800;48.824;9.346;2023-02-03T05:50:29;10.10;69.10
1614;DHT22;800;48.824;9.346;2023-02-03T05:52:58;10.10;69.30
1614;DHT22;800;48.824;9.346;2023-02-03T05:55:25;10.00;69.20
1614;DHT22;800;48.824;9.346;2023-02-03T05:57:50;10.00;69.20
1614;DHT22;800;48.824;9.346;2023-02-03T06:00:16;9.90;70.50
1614;DHT22;800;48.824;9.346;2023-02-03T06:02:42;9.80;70.40
1614;DHT22;800;48.824;9.346;2023-02-03T06:05:08;10.00;69.20
1614;DHT22;800;48.824;9.346;2023-02-03T06:07:34;10.10;68.80
1614;DHT22;800;48.824;9.346;2023-02-03T06:09:59;10.00;69.10
1614;DHT22;800;48.824;9.346;2023-02-03T06:12:25;10.10;68.70
1614;DHT22;800;48.824;9.346;2023-02-03T06:14:50;10.30;68.50
1614;DHT22;800;48.824;9.346;2023-02-03T06:17:16;10.20;68.20
1614;DHT22;800;48.824;9.346;2023-02-03T06:19:41;10.10;68.60
1614;DHT22;800;48.824;9.346;2023-02-03T06:22:07;10.30;68.00
1614;DHT22;800;48.824;9.346;2023-02-03T06:24:33;10.50;67.30
1614;DHT22;800;48.824;9.346;2023-02-03T06:26:58;10.70;66.60
1614;DHT22;800;48.824;9.346;2023-02-03T06:29:24;10.90;65.90
1614;DHT22;800;48.824;9.346;2023-02-03T06:31:49;10.80;65.00
1614;DHT22;800;48.824;9.346;2023-02-03T06:34:15;10.80;65.20
1614;DHT22;800;48.824;9.346;2023-02-03T06:36:40;10.70;65.30
1614;DHT22;800;48.824;9.346;2023-02-03T06:39:06;10.80;65.60
1614;DHT22;800;48.824;9.346;2023-02-03T06:41:31;10.80;65.80
1614;DHT22;800;48.824;9.346;2023-02-03T06:43:57;11.00;65.60
1614;DHT22;800;48.824;9.346;2023-02-03T06:46:23;10.90;65.50
1614;DHT22;800;48.824;9.346;2023-02-03T06:48:53;11.00;65.20
1614;DHT22;800;48.824;9.346;2023-02-03T06:51:19;10.90;65.00
1614;DHT22;800;48.824;9.346;2023-02-03T06:53:44;10.60;65.60
1614;DHT22;800;48.824;9.346;2023-02-03T06:56:10;10.60;66.10
1614;DHT22;800;48.824;9.346;2023-02-03T06:58:36;10.60;66.20
1614;DHT22;800;48.824;9.346;2023-02-03T07:01:01;10.50;67.00
1614;DHT22;800;48.824;9.346;2023-02-03T07:03:27;10.40;66.70
1614;DHT22;800;48.824;9.346;2023-02-03T07:05:52;10.10;67.40
1614;DHT22;800;48.824;9.346;2023-02-03T07:08:18;9.90;69.70
1614;DHT22;800;48.824;9.346;2023-02-03T07:10:43;10.00;68.50
1614;DHT22;800;48.824;9.346;2023-02-03T07:13:09;10.00;68.50
1614;DHT22;800;48.824;9.346;2023-02-03T07:15:35;9.90;70.00
1614;DHT22;800;48.824;9.346;2023-02-03T07:18:00;9.80;70.90
1614;DHT22;800;48.824;9.346;2023-02-03T07:20:26;9.70;70.00
1614;DHT22;800;48.824;9.346;2023-02-03T07:22:56;9.70;70.40
1614;DHT22;800;48.824;9.346;2023-02-03T07:25:23;9.80;70.50
1614;DHT22;800;48.824;9.346;2023-02-03T07:27:49;9.80;69.60
1614;DHT22;800;48.824;9.346;2023-02-03T07:30:15;9.90;69.70
1614;DHT22;800;48.824;9.346;2023-02-03T07:32:40;10.00;67.90
1614;DHT22;800;48.824;9.346;2023-02-03T07:35:06;10.10;67.70
1614;DHT22;800;48.824;9.346;2023-02-03T07:37:32;10.00;67.60
1614;DHT22;800;48.824;9.346;2023-02-03T07:39:58;10.20;67.20
1614;DHT22;800;48.824;9.346;2023-02-03T07:42:23;10.10;66.70
1614;DHT22;800;48.824;9.346;2023-02-03T07:44:49;9.80;68.10
1614;DHT22;800;48.824;9.346;2023-02-03T07:47:15;9.80;68.50
1614;DHT22;800;48.824;9.346;2023-02-03T07:49:40;9.80;69.00
1614;DHT22;800;48.824;9.346;2023-02-03T07:52:07;10.00;67.70
1614;DHT22;800;48.824;9.346;2023-02-03T07:54:33;10.10;67.20
1614;DHT22;800;48.824;9.346;2023-02-03T07:56:58;9.80;68.10
1614;DHT22;800;48.824;9.346;2023-02-03T07:59:24;10.10;68.40
1614;DHT22;800;48.824;9.346;2023-02-03T08:01:49;10.10;66.50
1614;DHT22;800;48.824;9.346;2023-02-03T08:04:15;9.80;68.90
1614;DHT22;800;48.824;9.346;2023-02-03T08:06:42;9.80;69.20
1614;DHT22;800;48.824;9.346;2023-02-03T08:09:08;9.70;69.20
1614;DHT22;800;48.824;9.346;2023-02-03T08:11:33;9.90;69.20
1614;DHT22;800;48.824;9.346;2023-02-03T08:13:59;10.10;67.50
1614;DHT22;800;48.824;9.346;2023-02-03T08:16:25;10.00;68.90
1614;DHT22;800;48.824;9.346;2023-02-03T08:18:50;10.20;67.90
1614;DHT22;800;48.824;9.346;2023-02-03T08:21:16;10.20;67.80
1614;DHT22;800;48.824;9.346;2023-02-03T08:23:42;10.20;67.70
1614;DHT22;800;48.824;9.346;2023-02-03T08:26:07;10.20;67.80
1614;DHT22;800;48.824;9.346;2023-02-03T08:28:33;10.30;67.60
1614;DHT22;800;48.824;9.346;2023-02-03T08:30:59;10.10;67.30
1614;DHT22;800;48.824;9.346;2023-02-03T08:33:24;10.00;67.80
1614;DHT22;800;48.824;9.346;2023-02-03T08:35:50;10.00;68.40
1614;DHT22;800;48.824;9.346;2023-02-03T08:38:16;9.90;69.50
1614;DHT22;800;48.824;9.346;2023-02-03T08:40:42;9.90;70.00
1614;DHT22;800;48.824;9.346;2023-02-03T08:43:08;10.00;69.00
1614;DHT22;800;48.824;9.346;2023-02-03T08:45:33;10.10;69.20
1614;DHT22;800;48.824;9.346;2023-02-03T08:47:59;10.10;69.30
1614;DHT22;800;48.824;9.346;2023-02-03T08:50:24;10.20;69.80
1614;DHT22;800;48.824;9.346;2023-02-03T08:52:50;10.20;69.90
1614;DHT22;800;48.824;9.346;2023-02-03T08:55:16;10.10;69.40
1614;DHT22;800;48.824;9.346;2023-02-03T08:57:41;10.10;69.80
1614;DHT22;800;48.824;9.346;2023-02-03T09:00:09;10.20;69.30
1614;DHT22;800;48.824;9.346;2023-02-03T09:02:35;10.10;70.00
1614;DHT22;800;48.824;9.346;2023-02-03T09:05:00;10.00;69.80
1614;DHT22;800;48.824;9.346;2023-02-03T09:07:26;10.20;70.20
1614;DHT22;800;48.824;9.346;2023-02-03T09:09:52;10.10;69.50
1614;DHT22;800;48.824;9.346;2023-02-03T09:12:17;10.30;69.40
1614;DHT22;800;48.824;9.346;2023-02-03T09:14:43;10.20;69.50
1614;DHT22;800;48.824;9.346;2023-02-03T09:17:09;10.10;70.00
1614;DHT22;800;48.824;9.346;2023-02-03T09:19:35;10.40;69.80
1614;DHT22;800;48.824;9.346;2023-02-03T09:22:01;10.20;69.40
1614;DHT22;800;48.824;9.346;2023-02-03T09:24:26;10.10;70.40
1614;DHT22;800;48.824;9.346;2023-02-03T09:26:52;10.20;70.10
1614;DHT22;800;48.824;9.346;2023-02-03T09:29:18;10.20;70.40
1614;DHT22;800;48.824;9.346;2023-02-03T09:31:44;10.20;70.70
1614;DHT22;800;48.824;9.346;2023-02-03T09:34:11;10.30;70.40
1614;DHT22;800;48.824;9.346;2023-02-03T09:36:37;10.20;70.40
1614;DHT22;800;48.824;9.346;2023-02-03T09:39:02;10.40;70.50
1614;DHT22;800;48.824;9.346;2023-02-03T09:41:39;10.60;69.60
1614;DHT22;800;48.824;9.346;2023-02-03T09:46:46;10.50;69.60
1614;DHT22;800;48.824;9.346;2023-02-03T09:49:45;10.60;69.70
1614;DHT22;800;48.824;9.346;2023-02-03T09:52:19;10.50;69.90
1614;DHT22;800;48.824;9.346;2023-02-03T09:57:47;10.80;69.30
1614;DHT22;800;48.824;9.346;2023-02-03T10:00:21;10.70;68.90
1614;DHT22;800;48.824;9.346;2023-02-03T10:06:05;10.70;68.80
1614;DHT22;800;48.824;9.346;2023-02-03T10:08:56;10.90;68.60
1614;DHT22;800;48.824;9.346;2023-02-03T10:14:31;10.90;69.00
1614;DHT22;800;48.824;9.346;2023-02-03T10:17:06;11.10;68.40
1614;DHT22;800;48.824;9.346;2023-02-03T10:19:48;10.90;67.80
1614;DHT22;800;48.824;9.346;2023-02-03T10:22:19;11.00;68.00
1614;DHT22;800;48.824;9.346;2023-02-03T10:27:34;11.20;68.10
1614;DHT22;800;48.824;9.346;2023-02-03T10:30:20;11.20;67.20
1614;DHT22;800;48.824;9.346;2023-02-03T10:33:08;11.20;66.80
1614;DHT22;800;48.824;9.346;2023-02-03T10:35:54;11.00;67.00
1614;DHT22;800;48.824;9.346;2023-02-03T10:41:10;11.10;67.80
1614;DHT22;800;48.824;9.346;2023-02-03T10:43:36;11.00;67.60
1614;DHT22;800;48.824;9.346;2023-02-03T10:46:35;11.00;67.90
1614;DHT22;800;48.824;9.346;2023-02-03T10:49:02;11.00;67.90
1614;DHT22;800;48.824;9.346;2023-02-03T10:51:36;11.10;68.10
1614;DHT22;800;48.824;9.346;2023-02-03T10:54:04;11.10;67.90
1614;DHT22;800;48.824;9.346;2023-02-03T10:56:33;11.30;68.10
1614;DHT22;800;48.824;9.346;2023-02-03T10:59:00;11.50;67.70
1614;DHT22;800;48.824;9.346;2023-02-03T11:01:37;11.30;66.90
1614;DHT22;800;48.824;9.346;2023-02-03T11:04:31;11.20;67.50
1614;DHT22;800;48.824;9.346;2023-02-03T11:07:00;11.00;68.30
1614;DHT22;800;48.824;9.346;2023-02-03T11:09:38;11.20;69.20
1614;DHT22;800;48.824;9.346;2023-02-03T11:12:18;11.20;67.90
1614;DHT22;800;48.824;9.346;2023-02-03T11:14:46;11.50;67.90
1614;DHT22;800;48.824;9.346;2023-02-03T11:19:46;11.50;67.10
1614;DHT22;800;48.824;9.346;2023-02-03T11:22:22;11.60;67.00
1614;DHT22;800;48.824;9.346;2023-02-03T11:24:51;11.50;67.20
1614;DHT22;800;48.824;9.346;2023-02-03T11:27:17;11.60;66.90
1614;DHT22;800;48.824;9.346;2023-02-03T11:29:46;11.70;66.10
1614;DHT22;800;48.824;9.346;2023-02-03T11:32:18;12.00;65.70
1614;DHT22;800;48.824;9.346;2023-02-03T11:34:57;12.10;63.60
1614;DHT22;800;48.824;9.346;2023-02-03T11:37:32;11.50;64.40
1614;DHT22;800;48.824;9.346;2023-02-03T11:42:39;11.50;65.80
1614;DHT22;800;48.824;9.346;2023-02-03T11:45:24;11.50;65.30
1614;DHT22;800;48.824;9.346;2023-02-03T11:47:54;11.40;65.40
1614;DHT22;800;48.824;9.346;2023-02-03T11:50:40;11.50;65.50
1614;DHT22;800;48.824;9.346;2023-02-03T12:10:00;11.50;64.50
1614;DHT22;800;48.824;9.346;2023-02-03T12:12:37;11.60;63.90
1614;DHT22;800;48.824;9.346;2023-02-03T12:15:37;11.70;63.20
1614;DHT22;800;48.824;9.346;2023-02-03T12:18:14;11.50;62.50
1614;DHT22;800;48.824;9.346;2023-02-03T12:29:10;12.20;61.20
1614;DHT22;800;48.824;9.346;2023-02-03T12:31:43;12.40;60.80
1614;DHT22;800;48.824;9.346;2023-02-03T12:37:04;12.50;60.70
1614;DHT22;800;48.824;9.346;2023-02-03T12:47:42;12.10;60.20
1614;DHT22;800;48.824;9.346;2023-02-03T12:50:34;12.00;60.20
1614;DHT22;800;48.824;9.346;2023-02-03T12:53:05;11.90;59.80
1614;DHT22;800;48.824;9.346;2023-02-03T12:55:50;11.70;60.30
1614;DHT22;800;48.824;9.346;2023-02-03T12:58:27;11.70;60.40
1614;DHT22;800;48.824;9.346;2023-02-03T13:03:54;11.80;60.20
1614;DHT22;800;48.824;9.346;2023-02-03T13:07:10;11.70;59.70
1614;DHT22;800;48.824;9.346;2023-02-03T13:18:02;11.40;60.20
1614;DHT22;800;48.824;9.346;2023-02-03T13:20:31;11.40;60.30
1614;DHT22;800;48.824;9.346;2023-02-03T13:23:04;11.50;60.10
1614;DHT22;800;48.824;9.346;2023-02-03T13:25:51;11.70;59.70
1614;DHT22;800;48.824;9.346;2023-02-03T13:37:09;11.70;59.40
1614;DHT22;800;48.824;9.346;2023-02-03T13:42:34;11.90;59.30
1614;DHT22;800;48.824;9.346;2023-02-03T13:45:36;11.80;58.80
1614;DHT22;800;48.824;9.346;2023-02-03T13:50:40;11.10;59.30
1614;DHT22;800;48.824;9.346;2023-02-03T13:53:34;11.10;60.40
1614;DHT22;800;48.824;9.346;2023-02-03T13:56:02;11.00;60.40
1614;DHT22;800;48.824;9.346;2023-02-03T13:58:30;11.30;60.20
1614;DHT22;800;48.824;9.346;2023-02-03T14:01:41;11.40;59.90
1614;DHT22;800;48.824;9.346;2023-02-03T14:06:55;11.40;60.10
1614;DHT22;800;48.824;9.346;2023-02-03T14:14:41;11.20;61.30
1614;DHT22;800;48.824;9.346;2023-02-03T14:19:59;11.60;60.30
1614;DHT22;800;48.824;9.346;2023-02-03T14:22:24;11.50;59.50
1614;DHT22;800;48.824;9.346;2023-02-03T14:24:53;11.60;59.90
1614;DHT22;800;48.824;9.346;2023-02-03T14:27:27;11.70;59.80
1614;DHT22;800;48.824;9.346;2023-02-03T14:30:10;11.70;59.60
1614;DHT22;800;48.824;9.346;2023-02-03T14:32:57;11.70;59.40
1614;DHT22;800;48.824;9.346;2023-02-03T14:35:34;11.70;59.90
1614;DHT22;800;48.824;9.346;2023-02-03T14:38:05;11.50;59.80
1614;DHT22;800;48.824;9.346;2023-02-03T14:40:38;11.60;59.90
1614;DHT22;800;48.824;9.346;2023-02-03T14:43:23;11.60;59.90
1614;DHT22;800;48.824;9.346;2023-02-03T14:46:16;11.70;60.40
1614;DHT22;800;48.824;9.346;2023-02-03T14:49:09;11.80;59.70
1614;DHT22;800;48.824;9.346;2023-02-03T14:54:47;11.20;60.60
1614;DHT22;800;48.824;9.346;2023-02-03T14:58:20;11.40;60.90
1614;DHT22;800;48.824;9.346;2023-02-03T15:00:29;11.20;60.60
1614;DHT22;800;48.824;9.346;2023-02-03T15:05:40;11.60;60.30
1614;DHT22;800;48.824;9.346;2023-02-03T15:11:14;11.60;60.70
1614;DHT22;800;48.824;9.346;2023-02-03T15:13:40;11.70;60.20
1614;DHT22;800;48.824;9.346;2023-02-03T15:16:13;11.70;60.40
1614;DHT22;800;48.824;9.346;2023-02-03T15:18:40;11.70;60.20
1614;DHT22;800;48.824;9.346;2023-02-03T15:21:17;11.90;59.90
1614;DHT22;800;48.824;9.346;2023-02-03T15:23:45;11.80;60.00
1614;DHT22;800;48.824;9.346;2023-02-03T15:26:22;12.00;59.80
1614;DHT22;800;48.824;9.346;2023-02-03T15:29:00;11.90;59.80
1614;DHT22;800;48.824;9.346;2023-02-03T15:31:30;11.80;60.60
1614;DHT22;800;48.824;9.346;2023-02-03T15:34:02;11.90;60.00
1614;DHT22;800;48.824;9.346;2023-02-03T15:36:40;11.60;59.80
1614;DHT22;800;48.824;9.346;2023-02-03T15:39:44;11.50;60.60
1614;DHT22;800;48.824;9.346;2023-02-03T15:42:21;11.30;61.40
1614;DHT22;800;48.824;9.346;2023-02-03T15:47:47;11.50;60.80
1614;DHT22;800;48.824;9.346;2023-02-03T15:52:52;11.40;62.00
1614;DHT22;800;48.824;9.346;2023-02-03T15:58:02;11.40;62.60
1614;DHT22;800;48.824;9.346;2023-02-03T16:00:37;11.20;62.90
1614;DHT22;800;48.824;9.346;2023-02-03T16:03:13;11.20;63.00
1614;DHT22;800;48.824;9.346;2023-02-03T16:05:40;11.00;63.70
1614;DHT22;800;48.824;9.346;2023-02-03T16:10:59;11.10;64.60
1614;DHT22;800;48.824;9.346;2023-02-03T16:13:26;11.20;64.70
1614;DHT22;800;48.824;9.346;2023-02-03T16:16:06;11.40;64.50
1614;DHT22;800;48.824;9.346;2023-02-03T16:18:38;11.50;64.10
1614;DHT22;800;48.824;9.346;2023-02-03T16:21:04;11.30;64.80
1614;DHT22;800;48.824;9.346;2023-02-03T16:23:30;11.20;65.40
1614;DHT22;800;48.824;9.346;2023-02-03T16:26:17;11.30;66.20
1614;DHT22;800;48.824;9.346;2023-02-03T16:28:43;11.20;66.30
1614;DHT22;800;48.824;9.346;2023-02-03T16:31:27;11.10;66.70
1614;DHT22;800;48.824;9.346;2023-02-03T16:34:16;11.20;67.10
1614;DHT22;800;48.824;9.346;2023-02-03T16:37:01;11.30;67.10
1614;DHT22;800;48.824;9.346;2023-02-03T16:39:45;11.20;66.90
1614;DHT22;800;48.824;9.346;2023-02-03T16:42:38;11.20;67.00
1614;DHT22;800;48.824;9.346;2023-02-03T16:45:23;10.90;67.70
1614;DHT22;800;48.824;9.346;2023-02-03T16:48:11;11.10;67.90
1614;DHT22;800;48.824;9.346;2023-02-03T16:50:55;11.10;68.10
1614;DHT22;800;48.824;9.346;2023-02-03T16:53:22;11.40;67.20
1614;DHT22;800;48.824;9.346;2023-02-03T16:55:49;11.50;66.80
1614;DHT22;800;48.824;9.346;2023-02-03T16:58:15;11.40;66.90
1614;DHT22;800;48.824;9.346;2023-02-03T17:00:43;11.20;67.10
1614;DHT22;800;48.824;9.346;2023-02-03T17:03:16;11.10;67.90
1614;DHT22;800;48.824;9.346;2023-02-03T17:05:43;11.00;67.60
1614;DHT22;800;48.824;9.346;2023-02-03T17:08:09;10.90;68.30
1614;DHT22;800;48.824;9.346;2023-02-03T17:10:36;11.00;68.40
1614;DHT22;800;48.824;9.346;2023-02-03T17:13:03;11.20;68.30
1614;DHT22;800;48.824;9.346;2023-02-03T17:15:29;11.10;67.60
1614;DHT22;800;48.824;9.346;2023-02-03T17:17:54;11.10;67.70
1614;DHT22;800;48.824;9.346;2023-02-03T17:20:22;11.00;68.00
1614;DHT22;800;48.824;9.346;2023-02-03T17:22:47;11.00;68.80
1614;DHT22;800;48.824;9.346;2023-02-03T17:25:16;11.10;68.30
1614;DHT22;800;48.824;9.346;2023-02-03T17:27:42;11.10;68.30
1614;DHT22;800;48.824;9.346;2023-02-03T17:30:08;11.20;67.60
1614;DHT22;800;48.824;9.346;2023-02-03T17:32:33;11.10;67.40
1614;DHT22;800;48.824;9.346;2023-02-03T17:34:59;11.10;67.80
1614;DHT22;800;48.824;9.346;2023-02-03T17:37:24;11.20;67.70
1614;DHT22;800;48.824;9.346;2023-02-03T17:39:50;11.00;67.70
1614;DHT22;800;48.824;9.346;2023-02-03T17:42:15;11.10;68.30
1614;DHT22;800;48.824;9.346;2023-02-03T17:44:41;11.20;67.70
1614;DHT22;800;48.824;9.346;2023-02-03T17:47:07;11.30;67.40
1614;DHT22;800;48.824;9.346;2023-02-03T17:49:33;11.40;67.10
1614;DHT22;800;48.824;9.346;2023-02-03T17:51:58;11.20;66.60
1614;DHT22;800;48.824;9.346;2023-02-03T17:54:24;11.20;67.10
1614;DHT22;800;48.824;9.346;2023-02-03T17:56:49;11.30;67.10
1614;DHT22;800;48.824;9.346;2023-02-03T17:59:15;11.40;66.60
1614;DHT22;800;48.824;9.346;2023-02-03T18:01:41;11.70;66.30
1614;DHT22;800;48.824;9.346;2023-02-03T18:04:07;11.70;65.10
1614;DHT22;800;48.824;9.346;2023-02-03T18:06:34;11.60;65.50
1614;DHT22;800;48.824;9.346;2023-02-03T18:09:09;11.30;66.50
1614;DHT22;800;48.824;9.346;2023-02-03T18:11:38;11.40;66.30
1614;DHT22;800;48.824;9.346;2023-02-03T18:14:04;11.50;66.00
1614;DHT22;800;48.824;9.346;2023-02-03T18:16:32;11.60;65.60
1614;DHT22;800;48.824;9.346;2023-02-03T18:19:00;11.30;66.70
1614;DHT22;800;48.824;9.346;2023-02-03T18:21:27;11.50;66.40
1614;DHT22;800;48.824;9.346;2023-02-03T18:23:53;11.70;65.40
1614;DHT22;800;48.824;9.346;2023-02-03T18:26:23;11.80;65.10
1614;DHT22;800;48.824;9.346;2023-02-03T18:28:51;11.90;64.90
1614;DHT22;800;48.824;9.346;2023-02-03T18:31:19;12.10;64.20
1614;DHT22;800;48.824;9.346;2023-02-03T18:33:45;12.00;64.10
1614;DHT22;800;48.824;9.346;2023-02-03T18:36:13;12.00;63.90
1614;DHT22;800;48.824;9.346;2023-02-03T18:38:40;12.00;63.70
1614;DHT22;800;48.824;9.346;2023-02-03T18:41:15;11.80;64.30
1614;DHT22;800;48.824;9.346;2023-02-03T18:43:41;11.90;64.50
1614;DHT22;800;48.824;9.346;2023-02-03T18:46:08;11.80;64.40
1614;DHT22;800;48.824;9.346;2023-02-03T18:48:34;11.90;65.10
1614;DHT22;800;48.824;9.346;2023-02-03T18:51:00;11.80;64.50
1614;DHT22;800;48.824;9.346;2023-02-03T18:53:26;11.40;66.00
1614;DHT22;800;48.824;9.346;2023-02-03T18:55:53;11.20;67.40
1614;DHT22;800;48.824;9.346;2023-02-03T18:58:19;11.10;67.90
1614;DHT22;800;48.824;9.346;2023-02-03T19:00:45;11.10;68.30
1614;DHT22;800;48.824;9.346;2023-02-03T19:03:10;10.90;69.10
1614;DHT22;800;48.824;9.346;2023-02-03T19:05:38;11.10;69.10
1614;DHT22;800;48.824;9.346;2023-02-03T19:08:05;11.10;68.80
1614;DHT22;800;48.824;9.346;2023-02-03T19:10:30;11.40;68.80